Kansas City International Airport
KMCI : rendu visible

Aérodrome :











RETROUVEZ-NOUS SUR...

 
LOGIN :

S'inscrire | Disclaimer

   EN    FR    IT 

 









Légende :    VFR   VFR Marginal   IFR   IFR Intensif   IFR Très Intensif
Visi : 
Plafond : 
>= 8 km
>= 3000ft
5 à 8 km
1000 à 3000 ft
1500m à 5 km
500 à 1000 ft
800 à 1500m
200 à 500 ft
< 800m
< 200 ft
Symboles :   Orages  Brouillard  Fortes neiges  Fortes précipitations  Vent > 20 kt






- Altitude de l'aérodrome : 1026 ft
- Code IATA : MCI


KMCI - Kansas City International

DERNIER METAR :
  • 282153Z 35012G17KT 10SM BKN110 23/23 A2996 RMK AO2 SLP136 T02330228 $

METARs EXPIRÉS :
  • 282053Z 02009KT 10SM FEW029 SCT085 OVC110 23/18 A2996 RMK AO2 SLP137 60000 T02280178 51012
  • 282035Z VRB03KT 10SM SCT030 SCT065 OVC200 22/19 A2996 RMK AO2 T02170189
  • 281953Z 15005KT 10SM SCT017 BKN023 OVC049 19/18 A2996 RMK AO2 SLP137 T01940178
  • 281933Z 02009KT 10SM FEW019 BKN027 OVC090 22/19 A2994 RMK AO2 T02170194
  • 281926Z 01009KT 10SM FEW019 BKN041 OVC090 22/19 A2993 RMK AO2 LTG DSNT S T02170194

TAF KMCI
Valide du 28 à 22h jusqu'au 29 à 18h UTC


282210Z 2822/2918 02005KT P6SM BKN200
FM291200 VRB04KT P6SM FEW250
FIR KZKC / Amérique du Nord



MET'MAP, la Météo Aéronautique d'un coup d'oeil ! - Copyright ORBIFLY Décembre 2007 - Disclaimer

ORBIFLY MET'MAP TEAM :

Programmation & Développement : Alexandra Zaïnal
Sur une idée originale de : Baudouin d'Aumeries
Assistance à la programmation : Marc-Olivier Méhu
Soutien technique & logistique : Manuel Goepfert

Contact : metmap@orbifly.com




SOURCES & CREDITS :

   NOAA       Earth
Advisory